sensor_id;sensor_type;location;lat;lon;timestamp;P1;durP1;ratioP1;P2;durP2;ratioP2
72569;SDS011;60594;50.204;8.844;2022-12-07T00:01:03;15.75;;;7.10;;
72569;SDS011;60594;50.204;8.844;2022-12-07T00:03:31;9.88;;;6.25;;
72569;SDS011;60594;50.204;8.844;2022-12-07T00:05:58;11.52;;;6.45;;
72569;SDS011;60594;50.204;8.844;2022-12-07T00:08:25;12.73;;;6.05;;
72569;SDS011;60594;50.204;8.844;2022-12-07T00:10:51;15.25;;;7.38;;
72569;SDS011;60594;50.204;8.844;2022-12-07T00:13:18;10.32;;;5.32;;
72569;SDS011;60594;50.204;8.844;2022-12-07T00:15:44;12.18;;;5.43;;
72569;SDS011;60594;50.204;8.844;2022-12-07T00:18:11;11.90;;;6.50;;
72569;SDS011;60594;50.204;8.844;2022-12-07T00:20:37;10.60;;;4.95;;
72569;SDS011;60594;50.204;8.844;2022-12-07T00:23:03;12.43;;;6.10;;
72569;SDS011;60594;50.204;8.844;2022-12-07T00:25:29;8.05;;;5.53;;
72569;SDS011;60594;50.204;8.844;2022-12-07T00:27:56;11.45;;;5.95;;
72569;SDS011;60594;50.204;8.844;2022-12-07T00:30:25;10.65;;;6.30;;
72569;SDS011;60594;50.204;8.844;2022-12-07T00:32:52;9.38;;;5.25;;
72569;SDS011;60594;50.204;8.844;2022-12-07T00:35:18;9.18;;;5.28;;
72569;SDS011;60594;50.204;8.844;2022-12-07T00:37:44;11.00;;;6.22;;
72569;SDS011;60594;50.204;8.844;2022-12-07T00:40:10;10.75;;;6.07;;
72569;SDS011;60594;50.204;8.844;2022-12-07T00:42:37;12.43;;;5.43;;
72569;SDS011;60594;50.204;8.844;2022-12-07T00:45:04;11.65;;;6.75;;
72569;SDS011;60594;50.204;8.844;2022-12-07T00:47:30;10.52;;;5.05;;
72569;SDS011;60594;50.204;8.844;2022-12-07T00:49:57;14.25;;;6.07;;
72569;SDS011;60594;50.204;8.844;2022-12-07T00:52:23;10.32;;;5.35;;
72569;SDS011;60594;50.204;8.844;2022-12-07T00:54:49;10.95;;;5.47;;
72569;SDS011;60594;50.204;8.844;2022-12-07T00:57:16;9.90;;;6.72;;
72569;SDS011;60594;50.204;8.844;2022-12-07T00:59:42;10.00;;;5.80;;
72569;SDS011;60594;50.204;8.844;2022-12-07T01:02:08;11.48;;;5.47;;
72569;SDS011;60594;50.204;8.844;2022-12-07T01:04:35;11.05;;;5.55;;
72569;SDS011;60594;50.204;8.844;2022-12-07T01:07:01;12.57;;;5.45;;
72569;SDS011;60594;50.204;8.844;2022-12-07T01:09:27;11.15;;;6.53;;
72569;SDS011;60594;50.204;8.844;2022-12-07T01:11:54;10.75;;;6.60;;
72569;SDS011;60594;50.204;8.844;2022-12-07T01:14:20;15.20;;;6.82;;
72569;SDS011;60594;50.204;8.844;2022-12-07T01:16:46;11.40;;;7.00;;
72569;SDS011;60594;50.204;8.844;2022-12-07T01:19:13;10.07;;;4.97;;
72569;SDS011;60594;50.204;8.844;2022-12-07T01:21:39;12.35;;;5.80;;
72569;SDS011;60594;50.204;8.844;2022-12-07T01:24:06;10.48;;;5.07;;
72569;SDS011;60594;50.204;8.844;2022-12-07T01:26:35;10.88;;;5.43;;
72569;SDS011;60594;50.204;8.844;2022-12-07T01:29:01;9.50;;;5.35;;
72569;SDS011;60594;50.204;8.844;2022-12-07T01:31:29;8.57;;;4.22;;
72569;SDS011;60594;50.204;8.844;2022-12-07T01:33:56;7.95;;;4.68;;
72569;SDS011;60594;50.204;8.844;2022-12-07T01:36:32;9.93;;;5.75;;
72569;SDS011;60594;50.204;8.844;2022-12-07T01:39:02;9.68;;;5.60;;
72569;SDS011;60594;50.204;8.844;2022-12-07T01:41:31;12.10;;;6.88;;
72569;SDS011;60594;50.204;8.844;2022-12-07T01:46:42;7.93;;;3.90;;
72569;SDS011;60594;50.204;8.844;2022-12-07T01:55:00;8.50;;;5.85;;
72569;SDS011;60594;50.204;8.844;2022-12-07T01:57:30;12.60;;;6.32;;
72569;SDS011;60594;50.204;8.844;2022-12-07T01:59:59;9.25;;;4.53;;
72569;SDS011;60594;50.204;8.844;2022-12-07T02:05:19;9.93;;;5.18;;
72569;SDS011;60594;50.204;8.844;2022-12-07T02:07:46;12.35;;;6.05;;
72569;SDS011;60594;50.204;8.844;2022-12-07T02:10:21;12.02;;;5.35;;
72569;SDS011;60594;50.204;8.844;2022-12-07T02:12:50;9.10;;;6.32;;
72569;SDS011;60594;50.204;8.844;2022-12-07T02:15:20;9.20;;;5.72;;
72569;SDS011;60594;50.204;8.844;2022-12-07T02:23:07;11.52;;;4.95;;
72569;SDS011;60594;50.204;8.844;2022-12-07T02:28:31;9.32;;;5.13;;
72569;SDS011;60594;50.204;8.844;2022-12-07T02:31:05;9.50;;;5.30;;
72569;SDS011;60594;50.204;8.844;2022-12-07T02:33:44;8.05;;;4.85;;
72569;SDS011;60594;50.204;8.844;2022-12-07T02:36:21;10.75;;;5.60;;
72569;SDS011;60594;50.204;8.844;2022-12-07T02:41:27;11.95;;;6.18;;
72569;SDS011;60594;50.204;8.844;2022-12-07T02:44:02;6.88;;;3.70;;
72569;SDS011;60594;50.204;8.844;2022-12-07T02:46:33;7.95;;;4.63;;
72569;SDS011;60594;50.204;8.844;2022-12-07T02:49:05;9.40;;;5.05;;
72569;SDS011;60594;50.204;8.844;2022-12-07T02:51:33;6.68;;;4.38;;
72569;SDS011;60594;50.204;8.844;2022-12-07T02:54:09;8.88;;;5.57;;
72569;SDS011;60594;50.204;8.844;2022-12-07T02:57:24;8.65;;;5.13;;
72569;SDS011;60594;50.204;8.844;2022-12-07T03:07:39;9.18;;;4.82;;
72569;SDS011;60594;50.204;8.844;2022-12-07T03:18:24;6.32;;;3.53;;
72569;SDS011;60594;50.204;8.844;2022-12-07T03:20:55;8.70;;;4.10;;
72569;SDS011;60594;50.204;8.844;2022-12-07T03:23:26;8.80;;;4.38;;
72569;SDS011;60594;50.204;8.844;2022-12-07T03:25:56;9.27;;;4.75;;
72569;SDS011;60594;50.204;8.844;2022-12-07T03:28:27;7.03;;;4.47;;
72569;SDS011;60594;50.204;8.844;2022-12-07T03:31:00;9.98;;;5.85;;
72569;SDS011;60594;50.204;8.844;2022-12-07T03:33:32;10.00;;;5.35;;
72569;SDS011;60594;50.204;8.844;2022-12-07T03:36:04;8.20;;;4.47;;
72569;SDS011;60594;50.204;8.844;2022-12-07T03:38:39;7.63;;;4.72;;
72569;SDS011;60594;50.204;8.844;2022-12-07T03:41:18;8.57;;;4.85;;
72569;SDS011;60594;50.204;8.844;2022-12-07T03:43:50;7.68;;;4.32;;
72569;SDS011;60594;50.204;8.844;2022-12-07T03:54:44;7.07;;;3.97;;
72569;SDS011;60594;50.204;8.844;2022-12-07T03:57:31;9.70;;;3.65;;
72569;SDS011;60594;50.204;8.844;2022-12-07T04:00:00;9.20;;;4.68;;
72569;SDS011;60594;50.204;8.844;2022-12-07T04:02:38;7.35;;;4.05;;
72569;SDS011;60594;50.204;8.844;2022-12-07T04:05:05;7.35;;;3.78;;
72569;SDS011;60594;50.204;8.844;2022-12-07T04:07:33;7.50;;;4.63;;
72569;SDS011;60594;50.204;8.844;2022-12-07T04:09:59;7.07;;;4.82;;
72569;SDS011;60594;50.204;8.844;2022-12-07T04:12:25;8.38;;;4.15;;
72569;SDS011;60594;50.204;8.844;2022-12-07T04:14:52;7.38;;;4.32;;
72569;SDS011;60594;50.204;8.844;2022-12-07T04:17:18;7.88;;;4.57;;
72569;SDS011;60594;50.204;8.844;2022-12-07T04:19:44;10.82;;;6.00;;
72569;SDS011;60594;50.204;8.844;2022-12-07T04:22:11;8.55;;;5.20;;
72569;SDS011;60594;50.204;8.844;2022-12-07T04:24:37;8.88;;;5.03;;
72569;SDS011;60594;50.204;8.844;2022-12-07T04:27:05;6.00;;;4.22;;
72569;SDS011;60594;50.204;8.844;2022-12-07T04:29:31;7.57;;;3.90;;
72569;SDS011;60594;50.204;8.844;2022-12-07T04:31:58;8.27;;;4.20;;
72569;SDS011;60594;50.204;8.844;2022-12-07T04:34:24;7.80;;;3.90;;
72569;SDS011;60594;50.204;8.844;2022-12-07T04:36:52;7.15;;;3.97;;
72569;SDS011;60594;50.204;8.844;2022-12-07T04:39:24;8.70;;;4.22;;
72569;SDS011;60594;50.204;8.844;2022-12-07T04:41:53;5.65;;;3.20;;
72569;SDS011;60594;50.204;8.844;2022-12-07T04:44:20;6.20;;;4.25;;
72569;SDS011;60594;50.204;8.844;2022-12-07T04:46:47;7.63;;;3.95;;
72569;SDS011;60594;50.204;8.844;2022-12-07T04:49:14;6.85;;;4.28;;
72569;SDS011;60594;50.204;8.844;2022-12-07T04:51:43;7.25;;;4.40;;
72569;SDS011;60594;50.204;8.844;2022-12-07T04:54:10;8.13;;;4.05;;
72569;SDS011;60594;50.204;8.844;2022-12-07T04:56:39;7.75;;;4.30;;
72569;SDS011;60594;50.204;8.844;2022-12-07T04:59:05;6.20;;;3.92;;
72569;SDS011;60594;50.204;8.844;2022-12-07T05:01:32;10.70;;;4.35;;
72569;SDS011;60594;50.204;8.844;2022-12-07T05:03:59;6.30;;;3.60;;
72569;SDS011;60594;50.204;8.844;2022-12-07T05:06:26;7.00;;;3.80;;
72569;SDS011;60594;50.204;8.844;2022-12-07T05:08:53;8.50;;;4.85;;
72569;SDS011;60594;50.204;8.844;2022-12-07T05:11:19;10.23;;;4.50;;
72569;SDS011;60594;50.204;8.844;2022-12-07T05:14:06;6.68;;;3.83;;
72569;SDS011;60594;50.204;8.844;2022-12-07T05:16:40;6.72;;;3.75;;
72569;SDS011;60594;50.204;8.844;2022-12-07T05:19:08;6.15;;;3.45;;
72569;SDS011;60594;50.204;8.844;2022-12-07T05:21:38;6.57;;;3.83;;
72569;SDS011;60594;50.204;8.844;2022-12-07T05:24:06;7.47;;;5.00;;
72569;SDS011;60594;50.204;8.844;2022-12-07T05:26:34;7.63;;;3.88;;
72569;SDS011;60594;50.204;8.844;2022-12-07T05:29:00;8.80;;;5.15;;
72569;SDS011;60594;50.204;8.844;2022-12-07T05:31:27;9.38;;;5.18;;
72569;SDS011;60594;50.204;8.844;2022-12-07T05:33:53;5.22;;;3.25;;
72569;SDS011;60594;50.204;8.844;2022-12-07T05:36:20;6.97;;;4.25;;
72569;SDS011;60594;50.204;8.844;2022-12-07T05:38:47;8.15;;;3.53;;
72569;SDS011;60594;50.204;8.844;2022-12-07T05:41:15;6.97;;;3.60;;
72569;SDS011;60594;50.204;8.844;2022-12-07T05:44:02;8.32;;;4.55;;
72569;SDS011;60594;50.204;8.844;2022-12-07T05:46:30;7.63;;;4.43;;
72569;SDS011;60594;50.204;8.844;2022-12-07T05:48:58;6.93;;;4.40;;
72569;SDS011;60594;50.204;8.844;2022-12-07T05:51:24;6.03;;;3.88;;
72569;SDS011;60594;50.204;8.844;2022-12-07T05:53:54;7.88;;;4.45;;
72569;SDS011;60594;50.204;8.844;2022-12-07T05:56:21;6.88;;;4.18;;
72569;SDS011;60594;50.204;8.844;2022-12-07T06:01:35;7.72;;;4.75;;
72569;SDS011;60594;50.204;8.844;2022-12-07T06:04:02;7.68;;;4.10;;
72569;SDS011;60594;50.204;8.844;2022-12-07T06:06:29;8.57;;;4.32;;
72569;SDS011;60594;50.204;8.844;2022-12-07T06:08:55;8.05;;;3.65;;
72569;SDS011;60594;50.204;8.844;2022-12-07T06:11:22;8.52;;;4.15;;
72569;SDS011;60594;50.204;8.844;2022-12-07T06:14:07;8.48;;;4.60;;
72569;SDS011;60594;50.204;8.844;2022-12-07T06:16:33;8.05;;;5.25;;
72569;SDS011;60594;50.204;8.844;2022-12-07T06:19:00;9.35;;;5.15;;
72569;SDS011;60594;50.204;8.844;2022-12-07T06:21:26;9.05;;;4.53;;
72569;SDS011;60594;50.204;8.844;2022-12-07T06:23:53;6.70;;;3.78;;
72569;SDS011;60594;50.204;8.844;2022-12-07T06:26:20;9.20;;;3.58;;
72569;SDS011;60594;50.204;8.844;2022-12-07T06:28:47;6.88;;;4.55;;
72569;SDS011;60594;50.204;8.844;2022-12-07T06:31:14;6.93;;;4.57;;
72569;SDS011;60594;50.204;8.844;2022-12-07T06:33:41;7.80;;;4.07;;
72569;SDS011;60594;50.204;8.844;2022-12-07T06:36:07;7.75;;;4.72;;
72569;SDS011;60594;50.204;8.844;2022-12-07T06:38:35;7.68;;;4.15;;
72569;SDS011;60594;50.204;8.844;2022-12-07T06:41:01;10.02;;;5.90;;
72569;SDS011;60594;50.204;8.844;2022-12-07T06:43:28;10.07;;;4.93;;
72569;SDS011;60594;50.204;8.844;2022-12-07T06:45:55;7.53;;;4.25;;
72569;SDS011;60594;50.204;8.844;2022-12-07T06:48:22;9.07;;;4.53;;
72569;SDS011;60594;50.204;8.844;2022-12-07T06:50:49;9.25;;;5.03;;
72569;SDS011;60594;50.204;8.844;2022-12-07T06:53:17;7.03;;;4.65;;
72569;SDS011;60594;50.204;8.844;2022-12-07T06:55:45;7.70;;;4.97;;
72569;SDS011;60594;50.204;8.844;2022-12-07T06:58:12;7.70;;;4.22;;
72569;SDS011;60594;50.204;8.844;2022-12-07T07:00:39;10.75;;;5.55;;
72569;SDS011;60594;50.204;8.844;2022-12-07T07:03:06;10.20;;;6.50;;
72569;SDS011;60594;50.204;8.844;2022-12-07T07:05:34;8.50;;;4.32;;
72569;SDS011;60594;50.204;8.844;2022-12-07T07:08:02;10.00;;;4.57;;
72569;SDS011;60594;50.204;8.844;2022-12-07T07:10:29;8.38;;;4.00;;
72569;SDS011;60594;50.204;8.844;2022-12-07T07:12:55;8.30;;;4.43;;
72569;SDS011;60594;50.204;8.844;2022-12-07T07:15:22;6.82;;;3.20;;
72569;SDS011;60594;50.204;8.844;2022-12-07T07:17:49;9.05;;;4.60;;
72569;SDS011;60594;50.204;8.844;2022-12-07T07:20:15;9.05;;;4.35;;
72569;SDS011;60594;50.204;8.844;2022-12-07T07:22:43;9.00;;;5.03;;
72569;SDS011;60594;50.204;8.844;2022-12-07T07:25:10;10.10;;;5.00;;
72569;SDS011;60594;50.204;8.844;2022-12-07T07:27:37;12.27;;;5.65;;
72569;SDS011;60594;50.204;8.844;2022-12-07T07:30:05;7.47;;;3.42;;
72569;SDS011;60594;50.204;8.844;2022-12-07T07:32:32;7.78;;;4.70;;
72569;SDS011;60594;50.204;8.844;2022-12-07T07:34:59;7.53;;;4.20;;
72569;SDS011;60594;50.204;8.844;2022-12-07T07:37:26;6.72;;;4.05;;
72569;SDS011;60594;50.204;8.844;2022-12-07T07:39:52;10.43;;;5.20;;
72569;SDS011;60594;50.204;8.844;2022-12-07T07:42:19;8.23;;;4.70;;
72569;SDS011;60594;50.204;8.844;2022-12-07T07:44:46;7.15;;;4.75;;
72569;SDS011;60594;50.204;8.844;2022-12-07T07:47:12;7.85;;;4.97;;
72569;SDS011;60594;50.204;8.844;2022-12-07T07:49:39;8.32;;;5.57;;
72569;SDS011;60594;50.204;8.844;2022-12-07T07:52:05;9.00;;;5.15;;
72569;SDS011;60594;50.204;8.844;2022-12-07T07:54:33;8.52;;;4.60;;
72569;SDS011;60594;50.204;8.844;2022-12-07T07:56:59;12.70;;;5.93;;
72569;SDS011;60594;50.204;8.844;2022-12-07T07:59:26;10.55;;;4.68;;
72569;SDS011;60594;50.204;8.844;2022-12-07T08:01:52;9.95;;;4.88;;
72569;SDS011;60594;50.204;8.844;2022-12-07T08:04:19;7.20;;;4.32;;
72569;SDS011;60594;50.204;8.844;2022-12-07T08:06:45;10.32;;;5.45;;
72569;SDS011;60594;50.204;8.844;2022-12-07T08:09:12;11.50;;;6.00;;
72569;SDS011;60594;50.204;8.844;2022-12-07T08:11:38;10.27;;;6.35;;
72569;SDS011;60594;50.204;8.844;2022-12-07T08:14:05;10.68;;;6.00;;
72569;SDS011;60594;50.204;8.844;2022-12-07T08:16:31;8.18;;;5.57;;
72569;SDS011;60594;50.204;8.844;2022-12-07T08:18:58;9.05;;;5.25;;
72569;SDS011;60594;50.204;8.844;2022-12-07T08:21:24;7.85;;;4.82;;
72569;SDS011;60594;50.204;8.844;2022-12-07T08:23:51;8.02;;;4.45;;
72569;SDS011;60594;50.204;8.844;2022-12-07T08:26:17;8.60;;;4.90;;
72569;SDS011;60594;50.204;8.844;2022-12-07T08:28:44;12.75;;;5.80;;
72569;SDS011;60594;50.204;8.844;2022-12-07T08:31:12;8.98;;;4.43;;
72569;SDS011;60594;50.204;8.844;2022-12-07T08:33:41;18.35;;;9.20;;
72569;SDS011;60594;50.204;8.844;2022-12-07T08:36:09;9.68;;;5.35;;
72569;SDS011;60594;50.204;8.844;2022-12-07T08:38:37;8.80;;;5.10;;
72569;SDS011;60594;50.204;8.844;2022-12-07T08:41:06;10.52;;;5.95;;
72569;SDS011;60594;50.204;8.844;2022-12-07T08:43:34;7.35;;;3.40;;
72569;SDS011;60594;50.204;8.844;2022-12-07T08:46:11;10.27;;;4.85;;
72569;SDS011;60594;50.204;8.844;2022-12-07T08:48:56;10.25;;;5.60;;
72569;SDS011;60594;50.204;8.844;2022-12-07T08:51:27;12.02;;;4.82;;
72569;SDS011;60594;50.204;8.844;2022-12-07T08:53:55;10.10;;;4.65;;
72569;SDS011;60594;50.204;8.844;2022-12-07T08:56:24;9.98;;;5.53;;
72569;SDS011;60594;50.204;8.844;2022-12-07T08:58:51;7.93;;;4.30;;
72569;SDS011;60594;50.204;8.844;2022-12-07T09:01:20;7.63;;;5.05;;
72569;SDS011;60594;50.204;8.844;2022-12-07T09:03:47;9.30;;;6.10;;
72569;SDS011;60594;50.204;8.844;2022-12-07T09:06:13;8.32;;;4.88;;
72569;SDS011;60594;50.204;8.844;2022-12-07T09:08:41;6.78;;;4.63;;
72569;SDS011;60594;50.204;8.844;2022-12-07T09:11:12;7.28;;;3.78;;
72569;SDS011;60594;50.204;8.844;2022-12-07T09:13:38;8.25;;;4.90;;
72569;SDS011;60594;50.204;8.844;2022-12-07T09:16:05;8.23;;;4.63;;
72569;SDS011;60594;50.204;8.844;2022-12-07T09:18:31;8.15;;;5.30;;
72569;SDS011;60594;50.204;8.844;2022-12-07T09:20:58;9.48;;;5.38;;
72569;SDS011;60594;50.204;8.844;2022-12-07T09:23:25;10.63;;;4.93;;
72569;SDS011;60594;50.204;8.844;2022-12-07T09:25:51;9.00;;;5.15;;
72569;SDS011;60594;50.204;8.844;2022-12-07T09:28:18;8.38;;;4.63;;
72569;SDS011;60594;50.204;8.844;2022-12-07T09:30:47;9.50;;;5.22;;
72569;SDS011;60594;50.204;8.844;2022-12-07T09:33:15;9.57;;;5.40;;
72569;SDS011;60594;50.204;8.844;2022-12-07T09:35:48;7.60;;;5.15;;
72569;SDS011;60594;50.204;8.844;2022-12-07T09:38:16;8.15;;;3.90;;
72569;SDS011;60594;50.204;8.844;2022-12-07T09:40:43;8.18;;;4.32;;
72569;SDS011;60594;50.204;8.844;2022-12-07T09:43:14;8.52;;;4.55;;
72569;SDS011;60594;50.204;8.844;2022-12-07T09:45:43;6.40;;;3.72;;
72569;SDS011;60594;50.204;8.844;2022-12-07T09:48:33;7.00;;;3.95;;
72569;SDS011;60594;50.204;8.844;2022-12-07T09:51:03;5.05;;;3.58;;
72569;SDS011;60594;50.204;8.844;2022-12-07T09:53:42;8.55;;;4.68;;
72569;SDS011;60594;50.204;8.844;2022-12-07T09:56:16;6.97;;;3.78;;
72569;SDS011;60594;50.204;8.844;2022-12-07T09:58:46;7.80;;;4.38;;
72569;SDS011;60594;50.204;8.844;2022-12-07T10:01:20;8.40;;;3.35;;
72569;SDS011;60594;50.204;8.844;2022-12-07T10:06:23;4.43;;;2.58;;
72569;SDS011;60594;50.204;8.844;2022-12-07T10:08:50;4.85;;;2.85;;
72569;SDS011;60594;50.204;8.844;2022-12-07T10:11:16;5.43;;;2.40;;
72569;SDS011;60594;50.204;8.844;2022-12-07T10:13:44;8.02;;;2.80;;
72569;SDS011;60594;50.204;8.844;2022-12-07T10:16:27;3.95;;;2.53;;
72569;SDS011;60594;50.204;8.844;2022-12-07T10:19:19;4.75;;;2.15;;
72569;SDS011;60594;50.204;8.844;2022-12-07T10:22:15;5.07;;;3.20;;
72569;SDS011;60594;50.204;8.844;2022-12-07T10:24:43;5.85;;;2.75;;
72569;SDS011;60594;50.204;8.844;2022-12-07T10:27:26;5.30;;;2.85;;
72569;SDS011;60594;50.204;8.844;2022-12-07T10:29:57;6.05;;;2.58;;
72569;SDS011;60594;50.204;8.844;2022-12-07T10:35:21;3.88;;;2.40;;
72569;SDS011;60594;50.204;8.844;2022-12-07T10:37:50;3.65;;;2.22;;
72569;SDS011;60594;50.204;8.844;2022-12-07T10:40:29;5.47;;;2.35;;
72569;SDS011;60594;50.204;8.844;2022-12-07T10:45:30;4.13;;;2.10;;
72569;SDS011;60594;50.204;8.844;2022-12-07T10:56:28;3.20;;;1.65;;
72569;SDS011;60594;50.204;8.844;2022-12-07T11:01:52;6.28;;;2.63;;
72569;SDS011;60594;50.204;8.844;2022-12-07T11:10:51;3.00;;;2.00;;
72569;SDS011;60594;50.204;8.844;2022-12-07T11:13:13;5.80;;;2.50;;
72569;SDS011;60594;50.204;8.844;2022-12-07T11:18:43;3.13;;;2.15;;
72569;SDS011;60594;50.204;8.844;2022-12-07T11:24:10;3.83;;;2.05;;
72569;SDS011;60594;50.204;8.844;2022-12-07T11:29:43;5.10;;;2.90;;
72569;SDS011;60594;50.204;8.844;2022-12-07T11:37:58;4.85;;;2.38;;
72569;SDS011;60594;50.204;8.844;2022-12-07T11:40:31;3.10;;;1.83;;
72569;SDS011;60594;50.204;8.844;2022-12-07T11:43:04;3.88;;;2.20;;
72569;SDS011;60594;50.204;8.844;2022-12-07T11:45:41;4.50;;;2.28;;
72569;SDS011;60594;50.204;8.844;2022-12-07T11:48:17;2.70;;;1.60;;
72569;SDS011;60594;50.204;8.844;2022-12-07T11:56:27;2.75;;;1.80;;
72569;SDS011;60594;50.204;8.844;2022-12-07T12:06:37;2.85;;;1.95;;
72569;SDS011;60594;50.204;8.844;2022-12-07T12:22:37;4.18;;;2.10;;
72569;SDS011;60594;50.204;8.844;2022-12-07T12:28:15;3.83;;;1.90;;
72569;SDS011;60594;50.204;8.844;2022-12-07T12:30:49;2.72;;;1.80;;
72569;SDS011;60594;50.204;8.844;2022-12-07T12:33:32;3.30;;;2.25;;
72569;SDS011;60594;50.204;8.844;2022-12-07T12:44:03;3.03;;;2.15;;
72569;SDS011;60594;50.204;8.844;2022-12-07T12:54:41;4.05;;;2.13;;
72569;SDS011;60594;50.204;8.844;2022-12-07T12:57:30;3.20;;;1.33;;
72569;SDS011;60594;50.204;8.844;2022-12-07T12:59:58;3.47;;;2.13;;
72569;SDS011;60594;50.204;8.844;2022-12-07T13:04:59;3.42;;;2.45;;
72569;SDS011;60594;50.204;8.844;2022-12-07T13:18:34;3.58;;;1.55;;
72569;SDS011;60594;50.204;8.844;2022-12-07T13:29:11;3.15;;;1.25;;
72569;SDS011;60594;50.204;8.844;2022-12-07T13:31:42;5.32;;;2.72;;
72569;SDS011;60594;50.204;8.844;2022-12-07T13:34:30;4.25;;;2.70;;
72569;SDS011;60594;50.204;8.844;2022-12-07T13:37:11;4.13;;;2.10;;
72569;SDS011;60594;50.204;8.844;2022-12-07T13:39:46;4.75;;;2.30;;
72569;SDS011;60594;50.204;8.844;2022-12-07T13:42:30;3.47;;;2.15;;
72569;SDS011;60594;50.204;8.844;2022-12-07T13:44:59;3.33;;;2.30;;
72569;SDS011;60594;50.204;8.844;2022-12-07T13:47:49;3.15;;;2.42;;
72569;SDS011;60594;50.204;8.844;2022-12-07T13:50:24;3.85;;;2.03;;
72569;SDS011;60594;50.204;8.844;2022-12-07T13:52:56;3.65;;;2.10;;
72569;SDS011;60594;50.204;8.844;2022-12-07T13:55:25;3.33;;;2.08;;
72569;SDS011;60594;50.204;8.844;2022-12-07T13:57:53;4.80;;;2.70;;
72569;SDS011;60594;50.204;8.844;2022-12-07T14:00:21;2.92;;;1.75;;
72569;SDS011;60594;50.204;8.844;2022-12-07T14:05:38;5.05;;;3.13;;
72569;SDS011;60594;50.204;8.844;2022-12-07T14:10:53;3.58;;;2.03;;
72569;SDS011;60594;50.204;8.844;2022-12-07T14:16:25;5.60;;;2.67;;
72569;SDS011;60594;50.204;8.844;2022-12-07T14:18:57;4.30;;;2.20;;
72569;SDS011;60594;50.204;8.844;2022-12-07T14:21:25;4.63;;;2.97;;
72569;SDS011;60594;50.204;8.844;2022-12-07T14:24:29;5.35;;;2.38;;
72569;SDS011;60594;50.204;8.844;2022-12-07T14:26:49;6.05;;;3.83;;
72569;SDS011;60594;50.204;8.844;2022-12-07T14:31:52;9.77;;;6.13;;
72569;SDS011;60594;50.204;8.844;2022-12-07T14:34:21;11.88;;;6.95;;
72569;SDS011;60594;50.204;8.844;2022-12-07T14:36:47;9.27;;;5.45;;
72569;SDS011;60594;50.204;8.844;2022-12-07T14:39:14;5.32;;;2.95;;
72569;SDS011;60594;50.204;8.844;2022-12-07T14:41:40;4.10;;;2.20;;
72569;SDS011;60594;50.204;8.844;2022-12-07T14:44:17;3.50;;;2.10;;
72569;SDS011;60594;50.204;8.844;2022-12-07T14:46:45;2.75;;;1.98;;
72569;SDS011;60594;50.204;8.844;2022-12-07T14:49:13;3.75;;;1.95;;
72569;SDS011;60594;50.204;8.844;2022-12-07T14:51:39;4.82;;;2.58;;
72569;SDS011;60594;50.204;8.844;2022-12-07T14:54:18;3.95;;;2.55;;
72569;SDS011;60594;50.204;8.844;2022-12-07T14:56:46;5.75;;;3.58;;
72569;SDS011;60594;50.204;8.844;2022-12-07T14:59:17;5.97;;;3.35;;
72569;SDS011;60594;50.204;8.844;2022-12-07T15:01:44;4.75;;;3.03;;
72569;SDS011;60594;50.204;8.844;2022-12-07T15:04:11;5.20;;;3.10;;
72569;SDS011;60594;50.204;8.844;2022-12-07T15:06:38;6.00;;;2.88;;
72569;SDS011;60594;50.204;8.844;2022-12-07T15:09:05;3.00;;;1.20;;
72569;SDS011;60594;50.204;8.844;2022-12-07T15:11:31;7.07;;;2.80;;
72569;SDS011;60594;50.204;8.844;2022-12-07T15:13:58;4.25;;;2.45;;
72569;SDS011;60594;50.204;8.844;2022-12-07T15:16:34;3.17;;;2.35;;
72569;SDS011;60594;50.204;8.844;2022-12-07T15:19:02;4.50;;;2.53;;
72569;SDS011;60594;50.204;8.844;2022-12-07T15:21:29;4.85;;;2.58;;
72569;SDS011;60594;50.204;8.844;2022-12-07T15:23:56;4.00;;;2.78;;
72569;SDS011;60594;50.204;8.844;2022-12-07T15:26:22;5.40;;;2.83;;
72569;SDS011;60594;50.204;8.844;2022-12-07T15:28:49;4.10;;;2.90;;
72569;SDS011;60594;50.204;8.844;2022-12-07T15:31:16;4.20;;;2.72;;
72569;SDS011;60594;50.204;8.844;2022-12-07T15:33:43;4.57;;;2.60;;
72569;SDS011;60594;50.204;8.844;2022-12-07T15:36:15;4.68;;;2.58;;
72569;SDS011;60594;50.204;8.844;2022-12-07T15:38:46;5.00;;;3.22;;
72569;SDS011;60594;50.204;8.844;2022-12-07T15:41:15;8.82;;;5.47;;
72569;SDS011;60594;50.204;8.844;2022-12-07T15:43:42;5.05;;;3.40;;
72569;SDS011;60594;50.204;8.844;2022-12-07T15:46:35;4.00;;;2.45;;
72569;SDS011;60594;50.204;8.844;2022-12-07T15:49:08;2.92;;;2.25;;
72569;SDS011;60594;50.204;8.844;2022-12-07T15:51:40;3.80;;;2.10;;
72569;SDS011;60594;50.204;8.844;2022-12-07T15:54:11;4.28;;;2.33;;
72569;SDS011;60594;50.204;8.844;2022-12-07T15:56:39;3.67;;;2.75;;
72569;SDS011;60594;50.204;8.844;2022-12-07T15:59:06;7.78;;;2.35;;
72569;SDS011;60594;50.204;8.844;2022-12-07T16:01:33;5.43;;;2.17;;
72569;SDS011;60594;50.204;8.844;2022-12-07T16:04:00;6.18;;;2.72;;
72569;SDS011;60594;50.204;8.844;2022-12-07T16:06:27;4.15;;;2.53;;
72569;SDS011;60594;50.204;8.844;2022-12-07T16:08:53;3.60;;;2.25;;
72569;SDS011;60594;50.204;8.844;2022-12-07T16:11:20;4.50;;;2.42;;
72569;SDS011;60594;50.204;8.844;2022-12-07T16:13:47;3.45;;;2.03;;
72569;SDS011;60594;50.204;8.844;2022-12-07T16:16:14;3.92;;;2.45;;
72569;SDS011;60594;50.204;8.844;2022-12-07T16:18:43;4.80;;;2.40;;
72569;SDS011;60594;50.204;8.844;2022-12-07T16:21:10;4.45;;;2.65;;
72569;SDS011;60594;50.204;8.844;2022-12-07T16:23:38;5.20;;;2.63;;
72569;SDS011;60594;50.204;8.844;2022-12-07T16:26:09;4.85;;;2.30;;
72569;SDS011;60594;50.204;8.844;2022-12-07T16:28:39;3.42;;;2.03;;
72569;SDS011;60594;50.204;8.844;2022-12-07T16:31:06;3.20;;;2.33;;
72569;SDS011;60594;50.204;8.844;2022-12-07T16:33:36;4.30;;;3.08;;
72569;SDS011;60594;50.204;8.844;2022-12-07T16:36:04;6.82;;;4.13;;
72569;SDS011;60594;50.204;8.844;2022-12-07T16:38:32;9.45;;;4.65;;
72569;SDS011;60594;50.204;8.844;2022-12-07T16:40:58;7.43;;;3.05;;
72569;SDS011;60594;50.204;8.844;2022-12-07T16:43:25;3.58;;;2.22;;
72569;SDS011;60594;50.204;8.844;2022-12-07T16:45:51;3.72;;;2.78;;
72569;SDS011;60594;50.204;8.844;2022-12-07T16:48:18;4.47;;;2.40;;
72569;SDS011;60594;50.204;8.844;2022-12-07T16:50:44;4.57;;;2.90;;
72569;SDS011;60594;50.204;8.844;2022-12-07T16:53:13;5.05;;;3.00;;
72569;SDS011;60594;50.204;8.844;2022-12-07T16:55:41;5.78;;;2.95;;
72569;SDS011;60594;50.204;8.844;2022-12-07T16:58:11;4.97;;;2.20;;
72569;SDS011;60594;50.204;8.844;2022-12-07T17:00:38;5.10;;;2.88;;
72569;SDS011;60594;50.204;8.844;2022-12-07T17:03:06;4.78;;;3.40;;
72569;SDS011;60594;50.204;8.844;2022-12-07T17:05:33;5.57;;;2.97;;
72569;SDS011;60594;50.204;8.844;2022-12-07T17:08:03;4.10;;;2.50;;
72569;SDS011;60594;50.204;8.844;2022-12-07T17:10:29;4.05;;;2.80;;
72569;SDS011;60594;50.204;8.844;2022-12-07T17:12:56;6.25;;;3.55;;
72569;SDS011;60594;50.204;8.844;2022-12-07T17:15:22;3.80;;;2.53;;
72569;SDS011;60594;50.204;8.844;2022-12-07T17:20:25;5.22;;;2.83;;
72569;SDS011;60594;50.204;8.844;2022-12-07T17:22:53;3.92;;;1.83;;
72569;SDS011;60594;50.204;8.844;2022-12-07T17:25:19;3.80;;;2.05;;
72569;SDS011;60594;50.204;8.844;2022-12-07T17:27:46;8.52;;;2.55;;
72569;SDS011;60594;50.204;8.844;2022-12-07T17:30:12;4.30;;;1.85;;
72569;SDS011;60594;50.204;8.844;2022-12-07T17:32:39;4.82;;;2.22;;
72569;SDS011;60594;50.204;8.844;2022-12-07T17:35:06;3.08;;;1.80;;
72569;SDS011;60594;50.204;8.844;2022-12-07T17:37:33;2.90;;;1.77;;
72569;SDS011;60594;50.204;8.844;2022-12-07T17:39:59;2.40;;;1.90;;
72569;SDS011;60594;50.204;8.844;2022-12-07T17:42:25;3.30;;;2.17;;
72569;SDS011;60594;50.204;8.844;2022-12-07T17:45:11;3.97;;;2.00;;
72569;SDS011;60594;50.204;8.844;2022-12-07T17:47:38;3.50;;;2.20;;
72569;SDS011;60594;50.204;8.844;2022-12-07T17:50:05;5.45;;;2.30;;